Hamden, Ohio
Current Conditions -  °F | °C
As of 8:55 AM on Friday 24 Oct 2014 (Local Time) from KUNI Reporting Station
Clear Clear  
Wind Chill: 36°   Ceiling: Unl
Heat Index: 36°   Visibility: 7mi
Dew Point: 34°   Wind: 0mph
Humidity: 95%   Direction: NA
Pressure: 30.13"   Gusts: NA
Location:  39.16°N, 82.53°W
Report Text: KUNI 241255Z AUTO 00000KT 7SM CLR 02/01 A3013 RMK AO2 T00200013
Loading
Personal Weather Stations






























Interactive Weather Map
Tropical Storm Tracking
New forecast layout! Learn more

10-Day Weather Forecast

Advertisements
Track Severe Weather on mobile